createdAt,value
2022-08-09T00:00:00.127Z,4.50
2022-08-09T00:02:28.365Z,4.90
2022-08-09T00:05:03.699Z,4.20
2022-08-09T00:07:44.721Z,3.70
2022-08-09T00:10:17.845Z,5.20
2022-08-09T00:12:45.549Z,3.90
2022-08-09T00:15:14.820Z,3.80
2022-08-09T00:18:10.549Z,4.00
2022-08-09T00:20:27.807Z,3.40
2022-08-09T00:22:58.039Z,3.50
2022-08-09T00:25:34.832Z,3.20
2022-08-09T00:28:04.029Z,3.80
2022-08-09T00:30:30.964Z,3.40
2022-08-09T00:32:57.887Z,3.50
2022-08-09T00:35:24.785Z,3.50
2022-08-09T00:37:51.590Z,3.70
2022-08-09T00:40:19.809Z,3.80
2022-08-09T00:44:11.855Z,3.70
2022-08-09T00:45:34.898Z,4.10
2022-08-09T00:48:03.675Z,4.00
2022-08-09T00:50:30.538Z,4.40
2022-08-09T00:52:57.295Z,3.70
2022-08-09T00:56:02.957Z,3.90
2022-08-09T00:58:14.733Z,3.80
2022-08-09T01:00:53.051Z,3.40
2022-08-09T01:03:54.843Z,3.10
2022-08-09T01:06:35.230Z,4.70
2022-08-09T01:09:35.833Z,4.00
2022-08-09T01:12:25.884Z,3.90
2022-08-09T01:15:01.456Z,4.70
2022-08-09T01:17:40.428Z,4.10
2022-08-09T01:20:18.003Z,4.40
2022-08-09T01:24:01.240Z,4.60
2022-08-09T01:26:08.889Z,4.80
2022-08-09T01:28:37.559Z,5.00
2022-08-09T01:31:06.135Z,5.10
2022-08-09T01:33:36.770Z,5.50
2022-08-09T01:36:09.238Z,4.90
2022-08-09T01:41:18.504Z,5.40
2022-08-09T01:43:55.864Z,5.40
2022-08-09T01:46:29.683Z,5.20
2022-08-09T01:49:10.438Z,4.90
2022-08-09T01:51:44.644Z,4.70
2022-08-09T01:54:43.388Z,4.70
2022-08-09T01:57:45.860Z,3.70
2022-08-09T02:00:35.063Z,5.30
2022-08-09T02:03:02.588Z,5.70
2022-08-09T02:05:37.839Z,5.30
2022-08-09T02:08:38.849Z,5.30
2022-08-09T02:11:16.761Z,5.60
2022-08-09T02:14:02.204Z,6.00
2022-08-09T02:16:35.194Z,5.40
2022-08-09T02:19:02.510Z,5.40
2022-08-09T02:21:40.546Z,5.10
2022-08-09T02:24:25.870Z,5.70
2022-08-09T02:26:58.803Z,5.40
2022-08-09T02:29:31.278Z,5.20
2022-08-09T02:32:01.143Z,4.30
2022-08-09T02:34:40.977Z,6.80
2022-08-09T02:37:21.243Z,5.10
2022-08-09T02:40:01.570Z,5.60
2022-08-09T02:42:40.430Z,5.10
2022-08-09T02:45:13.945Z,5.80
2022-08-09T02:47:58.134Z,6.30
2022-08-09T02:50:35.734Z,6.90
2022-08-09T02:53:07.969Z,6.30
2022-08-09T02:55:46.773Z,6.10
2022-08-09T02:58:35.700Z,6.50
2022-08-09T03:01:10.643Z,6.00
2022-08-09T03:04:18.088Z,6.30
2022-08-09T03:06:27.517Z,6.50
2022-08-09T03:08:54.903Z,6.00
2022-08-09T03:12:04.067Z,6.50
2022-08-09T03:14:10.273Z,6.30
2022-08-09T03:16:41.799Z,5.70
2022-08-09T03:19:16.568Z,5.20
2022-08-09T03:21:59.515Z,5.30
2022-08-09T03:24:31.458Z,5.20
2022-08-09T03:27:09.621Z,6.50
2022-08-09T03:29:58.118Z,5.70
2022-08-09T03:32:25.524Z,5.40
2022-08-09T03:34:54.202Z,6.80
2022-08-09T03:37:56.157Z,6.40
2022-08-09T03:40:13.272Z,5.40
2022-08-09T03:42:39.827Z,5.60
2022-08-09T03:45:10.847Z,5.80
2022-08-09T03:47:40.259Z,5.50
2022-08-09T03:50:09.659Z,5.60
2022-08-09T03:52:42.205Z,5.90
2022-08-09T03:55:11.132Z,6.80
2022-08-09T03:57:53.483Z,7.10
2022-08-09T04:00:24.387Z,6.80
2022-08-09T04:02:53.612Z,6.30
2022-08-09T04:05:27.558Z,7.30
2022-08-09T04:07:57.294Z,7.20
2022-08-09T04:10:29.117Z,5.40
2022-08-09T04:13:01.246Z,4.40
2022-08-09T04:16:18.894Z,5.10
2022-08-09T04:18:19.336Z,5.30
2022-08-09T04:20:47.914Z,5.40
2022-08-09T04:23:17.153Z,7.30
2022-08-09T04:25:49.693Z,10.50
2022-08-09T04:28:33.629Z,12.30
2022-08-09T04:31:07.717Z,14.40
2022-08-09T04:33:53.113Z,15.10
2022-08-09T04:36:26.777Z,13.70
2022-08-09T04:38:55.131Z,8.90
2022-08-09T04:41:23.319Z,7.70
2022-08-09T04:44:05.906Z,6.70
2022-08-09T04:46:56.833Z,6.00
2022-08-09T04:49:40.651Z,5.70
2022-08-09T04:52:10.165Z,5.90
2022-08-09T04:54:38.478Z,10.30
2022-08-09T04:57:05.543Z,6.10
2022-08-09T04:59:37.042Z,5.10
2022-08-09T05:02:04.811Z,4.80
2022-08-09T05:04:33.124Z,8.40
2022-08-09T05:06:59.726Z,7.80
2022-08-09T05:09:28.276Z,10.60
2022-08-09T05:12:09.777Z,9.20
2022-08-09T05:14:39.221Z,11.00
2022-08-09T05:17:15.213Z,14.20
2022-08-09T05:19:56.679Z,11.20
2022-08-09T05:22:43.648Z,7.20
2022-08-09T05:25:11.071Z,6.20
2022-08-09T05:27:45.586Z,7.20
2022-08-09T05:30:19.488Z,6.90
2022-08-09T05:32:51.143Z,7.40
2022-08-09T05:35:22.061Z,6.70
2022-08-09T05:37:50.425Z,6.70
2022-08-09T05:40:17.255Z,6.70
2022-08-09T05:42:45.061Z,6.70
2022-08-09T05:45:14.477Z,7.70
2022-08-09T05:47:51.527Z,7.20
2022-08-09T05:50:32.158Z,8.60
2022-08-09T05:53:11.739Z,9.20
2022-08-09T05:55:48.451Z,8.20
2022-08-09T05:58:19.559Z,8.80
2022-08-09T06:00:46.015Z,7.70
2022-08-09T06:03:12.976Z,7.90
2022-08-09T06:05:54.770Z,6.40
2022-08-09T06:08:25.189Z,7.70
2022-08-09T06:10:54.677Z,7.40
2022-08-09T06:13:22.051Z,7.10
2022-08-09T06:15:51.814Z,7.40
2022-08-09T06:18:24.207Z,7.90
2022-08-09T06:20:57.249Z,8.10
2022-08-09T06:23:59.021Z,7.60
2022-08-09T06:26:21.170Z,6.80
2022-08-09T06:28:59.661Z,7.30
2022-08-09T06:31:31.477Z,7.80
2022-08-09T06:34:06.271Z,6.40
2022-08-09T06:36:33.937Z,6.10
2022-08-09T06:39:02.415Z,6.20
2022-08-09T06:42:07.969Z,6.00
2022-08-09T06:44:21.885Z,5.90
2022-08-09T06:46:50.405Z,6.70
2022-08-09T06:49:44.602Z,6.20
2022-08-09T06:52:10.403Z,6.30
2022-08-09T06:54:38.816Z,6.40
2022-08-09T06:57:08.290Z,5.90
2022-08-09T07:00:52.912Z,5.90
2022-08-09T07:02:21.477Z,5.30
2022-08-09T07:04:47.978Z,4.90
2022-08-09T07:07:28.506Z,5.70
2022-08-09T07:10:14.046Z,5.10
2022-08-09T07:12:57.189Z,5.40
2022-08-09T07:16:36.112Z,5.50
2022-08-09T07:18:10.487Z,5.10
2022-08-09T07:20:40.760Z,5.60
2022-08-09T07:23:18.557Z,6.20
2022-08-09T07:25:52.531Z,5.10
2022-08-09T07:28:34.951Z,4.90
2022-08-09T07:31:06.150Z,5.60
2022-08-09T07:33:52.154Z,4.60
2022-08-09T07:36:19.536Z,4.40
2022-08-09T07:38:52.596Z,5.30
2022-08-09T07:41:25.809Z,5.10
2022-08-09T07:43:56.217Z,5.30
2022-08-09T07:46:27.867Z,4.70
2022-08-09T07:49:00.343Z,4.80
2022-08-09T07:54:15.445Z,5.60
2022-08-09T07:56:49.707Z,5.90
2022-08-09T07:59:34.161Z,6.30
2022-08-09T08:02:07.082Z,6.60
2022-08-09T08:04:36.017Z,6.30
2022-08-09T08:07:14.744Z,5.30
2022-08-09T08:10:04.550Z,5.50
2022-08-09T08:12:37.110Z,5.30
2022-08-09T08:15:13.880Z,6.10
2022-08-09T08:17:54.610Z,6.00
2022-08-09T08:20:29.709Z,6.10
2022-08-09T08:23:01.708Z,6.90
2022-08-09T08:25:43.940Z,7.10
2022-08-09T08:28:11.559Z,5.60
2022-08-09T08:30:42.291Z,5.00
2022-08-09T08:33:11.967Z,6.50
2022-08-09T08:35:53.187Z,4.10
2022-08-09T08:38:25.583Z,4.20
2022-08-09T08:40:56.839Z,3.30
2022-08-09T08:43:25.697Z,3.30
2022-08-09T08:46:10.118Z,3.70
2022-08-09T08:48:51.223Z,3.30
2022-08-09T08:51:18.736Z,4.10
2022-08-09T08:54:03.320Z,4.40
2022-08-09T08:56:39.687Z,3.40
2022-08-09T08:59:18.994Z,3.50
2022-08-09T09:01:53.256Z,3.40
2022-08-09T09:04:29.330Z,4.10
2022-08-09T09:06:57.612Z,3.90
2022-08-09T09:09:41.229Z,4.10
2022-08-09T09:12:19.629Z,4.30
2022-08-09T09:14:49.990Z,3.50
2022-08-09T09:17:19.539Z,3.60
2022-08-09T09:19:47.862Z,3.70
2022-08-09T09:22:26.556Z,3.00
2022-08-09T09:25:27.726Z,3.40
2022-08-09T09:28:06.556Z,3.30
2022-08-09T09:30:47.433Z,2.70
2022-08-09T09:33:17.362Z,2.60
2022-08-09T09:36:01.039Z,2.50
2022-08-09T09:39:01.902Z,2.50
2022-08-09T09:41:33.522Z,2.30
2022-08-09T09:44:31.635Z,2.50
2022-08-09T09:47:09.708Z,2.20
2022-08-09T09:49:56.260Z,3.00
2022-08-09T09:52:37.028Z,2.30
2022-08-09T09:55:16.435Z,2.60
2022-08-09T09:58:16.469Z,2.00
2022-08-09T10:00:54.545Z,2.40
2022-08-09T10:03:56.168Z,2.00
2022-08-09T10:06:24.767Z,2.30
2022-08-09T10:08:59.262Z,2.20
2022-08-09T10:12:00.702Z,2.10
2022-08-09T10:14:32.968Z,2.40
2022-08-09T10:17:40.622Z,2.10
2022-08-09T10:19:59.120Z,2.30
2022-08-09T10:22:38.195Z,2.20
2022-08-09T10:25:11.948Z,1.80
2022-08-09T10:27:45.418Z,2.10
2022-08-09T10:33:09.878Z,2.00
2022-08-09T10:35:56.447Z,1.80
2022-08-09T10:38:54.701Z,1.90
2022-08-09T10:41:16.703Z,1.70
2022-08-09T10:44:01.213Z,1.80
2022-08-09T10:48:13.434Z,2.10
2022-08-09T10:50:17.491Z,2.10
2022-08-09T10:53:39.494Z,1.70
2022-08-09T10:56:39.952Z,2.00
2022-08-09T10:59:55.376Z,1.80
2022-08-09T11:03:15.878Z,1.80
2022-08-09T11:05:29.748Z,1.60
2022-08-09T11:08:46.988Z,1.90
2022-08-09T11:11:16.802Z,1.70
2022-08-09T11:13:50.661Z,1.80
2022-08-09T11:16:37.129Z,1.50
2022-08-09T11:19:07.823Z,1.80
2022-08-09T11:21:55.117Z,1.70
2022-08-09T11:25:12.480Z,1.90
2022-08-09T11:28:02.902Z,1.90
2022-08-09T11:30:36.222Z,1.90
2022-08-09T11:33:18.520Z,1.50
2022-08-09T11:38:32.512Z,1.80
2022-08-09T11:41:13.304Z,1.80
2022-08-09T11:43:48.133Z,1.80
2022-08-09T11:46:26.707Z,2.00
2022-08-09T11:49:00.906Z,1.80
2022-08-09T11:53:00.728Z,1.60
2022-08-09T11:55:52.872Z,1.80
2022-08-09T11:58:15.689Z,1.90
2022-08-09T12:00:59.478Z,2.40
2022-08-09T12:03:55.046Z,2.00
2022-08-09T12:06:26.930Z,2.00
2022-08-09T12:09:01.240Z,2.00
2022-08-09T12:11:28.497Z,2.20
2022-08-09T12:14:09.025Z,2.10
2022-08-09T12:16:41.532Z,2.50
2022-08-09T12:19:12.508Z,2.30
2022-08-09T12:21:51.388Z,2.00
2022-08-09T12:24:24.113Z,1.90
2022-08-09T12:29:11.660Z,3.00
2022-08-09T12:30:00.104Z,2.30
2022-08-09T12:32:40.654Z,2.10
2022-08-09T12:35:10.861Z,2.20
2022-08-09T12:37:49.681Z,2.20
2022-08-09T12:40:21.189Z,2.10
2022-08-09T12:42:50.223Z,2.60
2022-08-09T12:45:32.329Z,2.20
2022-08-09T12:48:04.027Z,2.20
2022-08-09T12:50:31.313Z,2.60
2022-08-09T12:53:17.799Z,2.00
2022-08-09T12:56:13.021Z,2.20
2022-08-09T12:58:31.930Z,2.20
2022-08-09T13:01:01.193Z,2.20
2022-08-09T13:03:54.086Z,2.00
2022-08-09T13:06:35.781Z,2.40
2022-08-09T13:09:30.490Z,2.40
2022-08-09T13:12:03.003Z,2.30
2022-08-09T13:14:43.838Z,2.50
2022-08-09T13:17:21.805Z,2.10
2022-08-09T13:20:13.313Z,2.40
2022-08-09T13:23:05.802Z,2.00
2022-08-09T13:25:42.945Z,2.50
2022-08-09T13:28:33.881Z,2.40
2022-08-09T13:33:56.554Z,2.50
2022-08-09T13:36:37.644Z,2.30
2022-08-09T13:41:17.317Z,2.40
2022-08-09T13:42:01.374Z,2.30
2022-08-09T13:44:29.256Z,2.00
2022-08-09T13:47:28.901Z,2.20
2022-08-09T13:49:55.841Z,2.10
2022-08-09T13:52:24.541Z,2.40
2022-08-09T13:54:59.750Z,2.20
2022-08-09T13:57:35.478Z,2.10
2022-08-09T14:00:12.560Z,2.30
2022-08-09T14:02:42.469Z,2.30
2022-08-09T14:05:57.176Z,2.10
2022-08-09T14:08:15.848Z,2.20
2022-08-09T14:10:51.894Z,2.30
2022-08-09T14:14:15.029Z,2.30
2022-08-09T14:16:14.903Z,2.50
2022-08-09T14:18:49.318Z,2.40
2022-08-09T14:21:22.945Z,2.40
2022-08-09T14:23:54.787Z,2.50
2022-08-09T14:26:31.963Z,2.40
2022-08-09T14:29:08.130Z,2.20
2022-08-09T14:31:53.657Z,2.30
2022-08-09T14:34:31.910Z,2.90
2022-08-09T14:37:06.291Z,2.20
2022-08-09T14:39:45.979Z,2.40
2022-08-09T14:42:31.855Z,2.30
2022-08-09T14:45:14.913Z,2.40
2022-08-09T14:47:57.573Z,2.50
2022-08-09T14:50:33.065Z,2.40
2022-08-09T14:53:03.354Z,2.80
2022-08-09T14:58:04.785Z,2.90
2022-08-09T15:00:33.819Z,2.40
2022-08-09T15:03:06.084Z,3.00
2022-08-09T15:05:34.361Z,3.70
2022-08-09T15:08:05.827Z,3.40
2022-08-09T15:10:35.081Z,2.90
2022-08-09T15:13:03.488Z,3.30
2022-08-09T15:15:34.394Z,3.40
2022-08-09T15:18:07.147Z,2.70
2022-08-09T15:21:55.921Z,2.70
2022-08-09T15:24:01.448Z,3.20
2022-08-09T15:26:18.949Z,3.00
2022-08-09T15:28:55.434Z,2.50
2022-08-09T15:31:40.408Z,2.70
2022-08-09T15:34:32.743Z,2.40
2022-08-09T15:37:24.448Z,3.60
2022-08-09T15:40:11.666Z,3.20
2022-08-09T15:42:40.238Z,2.90
2022-08-09T15:45:11.944Z,4.20
2022-08-09T15:47:51.487Z,3.10
2022-08-09T15:50:19.643Z,2.50
2022-08-09T15:52:54.602Z,3.50
2022-08-09T15:55:53.923Z,2.70
2022-08-09T15:58:26.483Z,2.70
2022-08-09T16:00:54.163Z,2.80
2022-08-09T16:03:29.382Z,2.80
2022-08-09T16:06:06.572Z,2.30
2022-08-09T16:08:33.499Z,3.00
2022-08-09T16:11:02.273Z,3.80
2022-08-09T16:14:06.153Z,4.30
2022-08-09T16:16:19.674Z,3.00
2022-08-09T16:18:47.388Z,3.20
2022-08-09T16:21:17.651Z,2.70
2022-08-09T16:23:55.571Z,3.30
2022-08-09T16:26:33.725Z,2.90
2022-08-09T16:29:10.964Z,2.90
2022-08-09T16:32:19.454Z,3.30
2022-08-09T16:34:29.421Z,3.40
2022-08-09T16:37:16.097Z,2.60
2022-08-09T16:39:54.632Z,2.90
2022-08-09T16:42:31.947Z,2.40
2022-08-09T16:44:58.522Z,2.90
2022-08-09T16:48:39.963Z,2.70
2022-08-09T16:50:33.150Z,3.30
2022-08-09T16:53:01.415Z,2.60
2022-08-09T16:55:44.144Z,2.20
2022-08-09T16:58:17.263Z,3.30
2022-08-09T17:00:46.472Z,2.10
2022-08-09T17:03:21.509Z,3.30
2022-08-09T17:06:07.475Z,2.40
2022-08-09T17:08:46.751Z,2.90
2022-08-09T17:11:40.150Z,3.10
2022-08-09T17:17:02.398Z,3.00
2022-08-09T17:20:04.986Z,3.50
2022-08-09T17:22:24.219Z,2.80
2022-08-09T17:24:55.759Z,2.80
2022-08-09T17:27:30.455Z,3.60
2022-08-09T17:30:04.656Z,2.70
2022-08-09T17:32:37.811Z,2.60
2022-08-09T17:35:12.170Z,2.60
2022-08-09T17:38:02.400Z,2.40
2022-08-09T17:40:30.278Z,2.60
2022-08-09T17:43:10.887Z,2.90
2022-08-09T17:46:02.663Z,2.50
2022-08-09T17:48:32.349Z,2.40
2022-08-09T17:51:08.687Z,2.40
2022-08-09T17:53:48.098Z,2.60
2022-08-09T17:56:29.315Z,2.10
2022-08-09T17:59:09.232Z,2.60
2022-08-09T18:02:07.668Z,2.20
2022-08-09T18:04:29.889Z,2.50
2022-08-09T18:06:57.100Z,2.20
2022-08-09T18:09:25.253Z,2.60
2022-08-09T18:12:15.014Z,2.80
2022-08-09T18:14:54.236Z,2.50
2022-08-09T18:18:03.555Z,2.70
2022-08-09T18:20:54.999Z,2.80
2022-08-09T18:24:08.755Z,2.50
2022-08-09T18:26:00.124Z,3.00
2022-08-09T18:30:41.162Z,2.60
2022-08-09T18:31:25.003Z,2.50
2022-08-09T18:34:02.459Z,2.70
2022-08-09T18:36:32.544Z,2.70
2022-08-09T18:39:05.476Z,3.20
2022-08-09T18:41:35.701Z,3.90
2022-08-09T18:44:12.556Z,3.10
2022-08-09T18:46:48.426Z,2.90
2022-08-09T18:49:19.653Z,2.90
2022-08-09T18:51:54.889Z,2.60
2022-08-09T18:54:29.713Z,3.70
2022-08-09T18:57:05.881Z,4.00
2022-08-09T18:59:37.466Z,3.10
2022-08-09T19:02:17.319Z,3.30
2022-08-09T19:04:47.374Z,3.90
2022-08-09T19:07:16.344Z,2.60
2022-08-09T19:10:15.599Z,2.30
2022-08-09T19:12:37.051Z,2.90
2022-08-09T19:15:06.402Z,2.70
2022-08-09T19:17:54.473Z,2.80
2022-08-09T19:20:23.180Z,2.90
2022-08-09T19:22:54.474Z,2.70
2022-08-09T19:25:42.545Z,2.80
2022-08-09T19:28:09.218Z,3.00
2022-08-09T19:30:44.234Z,3.20
2022-08-09T19:33:19.494Z,3.20
2022-08-09T19:35:57.974Z,3.00
2022-08-09T19:38:26.757Z,2.60
2022-08-09T19:40:54.019Z,3.60
2022-08-09T19:43:58.031Z,3.40
2022-08-09T19:46:08.031Z,3.60
2022-08-09T19:49:00.694Z,3.30
2022-08-09T19:51:21.393Z,3.10
2022-08-09T19:53:48.229Z,2.90
2022-08-09T19:56:15.380Z,3.60
2022-08-09T19:58:42.403Z,3.20
2022-08-09T20:01:28.289Z,3.20
2022-08-09T20:04:24.116Z,3.50
2022-08-09T20:06:56.411Z,3.20
2022-08-09T20:09:44.926Z,3.50
2022-08-09T20:12:30.034Z,3.10
2022-08-09T20:14:58.303Z,3.60
2022-08-09T20:17:26.129Z,3.10
2022-08-09T20:19:58.095Z,3.10
2022-08-09T20:22:32.211Z,3.40
2022-08-09T20:25:04.824Z,3.40
2022-08-09T20:27:32.042Z,3.20
2022-08-09T20:30:02.667Z,4.10
2022-08-09T20:32:33.718Z,5.00
2022-08-09T20:35:01.427Z,4.50
2022-08-09T20:37:37.350Z,4.10
2022-08-09T20:40:28.240Z,3.90
2022-08-09T20:43:17.891Z,4.40
2022-08-09T20:46:00.403Z,3.30
2022-08-09T20:48:37.237Z,4.10
2022-08-09T20:51:05.597Z,3.80
2022-08-09T20:53:37.261Z,4.40
2022-08-09T20:56:08.735Z,4.50
2022-08-09T20:58:35.921Z,4.30
2022-08-09T21:01:32.777Z,4.90
2022-08-09T21:05:49.565Z,4.30
2022-08-09T21:06:41.561Z,4.00
2022-08-09T21:09:13.441Z,4.50
2022-08-09T21:14:30.973Z,3.50
2022-08-09T21:16:59.338Z,3.60
2022-08-09T21:20:05.176Z,3.90
2022-08-09T21:22:35.969Z,3.50
2022-08-09T21:25:18.577Z,3.40
2022-08-09T21:27:52.109Z,3.40
2022-08-09T21:30:22.401Z,4.80
2022-08-09T21:32:50.414Z,4.80
2022-08-09T21:35:17.134Z,4.20
2022-08-09T21:37:58.682Z,4.00
2022-08-09T21:40:30.119Z,4.30
2022-08-09T21:43:01.167Z,4.30
2022-08-09T21:45:28.050Z,4.70
2022-08-09T21:47:55.719Z,4.50
2022-08-09T21:50:35.861Z,4.50
2022-08-09T21:53:23.911Z,4.60
2022-08-09T21:55:53.580Z,4.50
2022-08-09T21:58:20.447Z,4.50
2022-08-09T22:00:48.722Z,4.70
2022-08-09T22:03:19.556Z,4.40
2022-08-09T22:05:54.184Z,4.60
2022-08-09T22:08:24.548Z,4.30
2022-08-09T22:11:49.532Z,5.00
2022-08-09T22:13:39.275Z,5.10
2022-08-09T22:16:11.156Z,4.70
2022-08-09T22:18:52.794Z,4.70
2022-08-09T22:21:24.192Z,5.30
2022-08-09T22:23:59.871Z,5.40
2022-08-09T22:26:34.743Z,4.90
2022-08-09T22:29:08.745Z,5.30
2022-08-09T22:31:44.115Z,4.90
2022-08-09T22:34:25.901Z,5.90
2022-08-09T22:36:55.569Z,5.10
2022-08-09T22:39:57.462Z,4.40
2022-08-09T22:42:22.063Z,4.20
2022-08-09T22:45:00.558Z,4.40
2022-08-09T22:48:10.397Z,4.40
2022-08-09T22:50:26.990Z,4.20
2022-08-09T22:52:58.026Z,4.70
2022-08-09T22:55:39.238Z,4.60
2022-08-09T22:58:20.190Z,4.30
2022-08-09T23:01:03.639Z,4.30
2022-08-09T23:04:03.974Z,4.90
2022-08-09T23:06:29.865Z,4.90
2022-08-09T23:09:06.022Z,5.00
2022-08-09T23:11:32.736Z,5.10
2022-08-09T23:13:59.220Z,5.00
2022-08-09T23:16:25.689Z,5.60
2022-08-09T23:18:52.143Z,5.00
2022-08-09T23:21:25.288Z,5.00
2022-08-09T23:24:01.449Z,5.00
2022-08-09T23:26:32.221Z,4.40
2022-08-09T23:28:58.762Z,5.50
2022-08-09T23:31:25.334Z,4.90
2022-08-09T23:33:51.723Z,5.50
2022-08-09T23:36:18.126Z,5.80
2022-08-09T23:38:48.321Z,5.70
2022-08-09T23:41:28.380Z,5.00
2022-08-09T23:44:00.788Z,5.20
2022-08-09T23:46:28.688Z,5.00
2022-08-09T23:48:56.170Z,5.80
2022-08-09T23:51:22.664Z,5.00
2022-08-09T23:53:52.352Z,5.70
2022-08-09T23:56:39.631Z,5.50
2022-08-09T23:59:06.730Z,5.70
